Madras, OR

8:56 AM PDT on October 30, 2014 (GMT -0700)
Downtown Madras | Change Station
CLOSE
Current Station
Personal Weather Station
Location: Madras, OR
Elevation: 2262 ft
Nearby Weather Stations

Elev 2262 ft 44.63 °N, 121.13 °W | Updated 4 seconds ago

Overcast
Overcast
48.2 °F
Feels Like 48 °F
N
0.0
Wind Variable Wind from NE
Gusts 0.0 mph

Today
High -- | Low -- °F
--% Chance of Precip.
Yesterday
High -- | Low -- °F
Precip. -- in
7:39 AM 5:56 PM
Waxing Crescent, 45% visible
Pressure 30.02 in
Visibility 10.0 miles
Clouds Scattered Clouds 11000 ft
Windchill 48 °F
Dew Point 47 °F
Humidity 97%
Rainfall 0.04 in
Snow Depth Not available.
UV 0 out of 12
Pollen .30 out of 12
Air Quality Not available.
Flu Activity Not available.
METAR KRDM 301456Z 02003KT 10SM SCT110 07/07 A3002 RMK AO2 SLP165 60001 T00720072 56004

More Conditions Fewer Conditions

Pressure 30.02 in
Visibility 10.0 miles
Clouds Scattered Clouds 11000 ft
Windchill 48 °F
Dew Point 47 °F
Humidity 97%
Rainfall 0.04 in
Snow Depth Not available.
UV 0 out of 12
Pollen .30 out of 12
Air Quality Not available.
Flu Activity Not available.
METAR KRDM 301456Z 02003KT 10SM SCT110 07/07 A3002 RMK AO2 SLP165 60001 T00720072 56004

More Conditions Fewer Conditions

10-Day Weather Forecast

Almanac

Astronomy

Oct. 30, 2014 Rise Set
Actual Time
Civil Twilight
Nautical Twilight
Astronomical Twilight
Moon
Length of Visible Light
Length of Day
Tomorrow will be .
, % of the Moon is Illuminated

Today's Extremes

State Highs State Lows

Community

WunderPhotos

Upload Photos

1,766,389 photos uploaded!

WunderBlogs® & News

Nearby

Air Quality

  Air Quality AQ Index Pollutant
Not available.

Snow Depth

Station Depth Elevation

Earthquake Activity

City Distance Mag. Time & Date
Minimum magnitude displayed is 2.5.

Coastal Water Temperatures

Place Temperature

Nearby Weather Stations